Time;durP1;ratioP1;P1;durP2;ratioP2;P2;SDS_P1;SDS_P2;PMS_P1;PMS_P2;Temp;Humidity;BMP_temperature;BMP_pressure;BME280_temperature;BME280_humidity;BME280_pressure;Samples;Min_cycle;Max_cycle;Signal;HPM_P1;HPM_P2
2022/11/21 00:00:12;;;;;;;2.67;0.80;;;;;;;;;;510814;28;1144;-61
2022/11/21 00:00:29;;;;;;;2.80;0.75;;;;;;;;;;511129;28;1774;-61
2022/11/21 00:00:47;;;;;;;4.20;0.80;;;;;;;;;;512904;28;1447;-60
2022/11/21 00:01:31;;;;;;;4.75;1.00;;;;;;;;;;510336;28;1237;-61
2022/11/21 00:01:47;;;;;;;3.53;0.80;;;;;;;;;;507801;29;1412;-60
2022/11/21 00:02:02;;;;;;;3.73;0.80;;;;;;;;;;507506;29;1306;-60
2022/11/21 00:02:17;;;;;;;4.57;0.95;;;;;;;;;;509503;28;1707;-61
2022/11/21 00:02:32;;;;;;;4.23;0.93;;;;;;;;;;508298;28;1436;-61
2022/11/21 00:02:48;;;;;;;3.40;0.90;;;;;;;;;;510819;28;1610;-61
2022/11/21 00:03:03;;;;;;;3.67;1.03;;;;;;;;;;509950;28;1474;-60
2022/11/21 00:03:19;;;;;;;3.97;0.90;;;;;;;;;;511111;28;1168;-60
2022/11/21 00:03:39;;;;;;;4.67;0.80;;;;;;;;;;508172;28;1470;-60
2022/11/21 00:03:54;;;;;;;5.03;0.93;;;;;;;;;;508747;28;1373;-60
2022/11/21 00:04:09;;;;;;;4.40;1.00;;;;;;;;;;510824;28;1216;-60
2022/11/21 00:04:25;;;;;;;4.70;1.10;;;;;;;;;;510059;28;1204;-60
2022/11/21 00:04:40;;;;;;;3.80;1.00;;;;;;;;;;509826;28;1303;-61
2022/11/21 00:04:55;;;;;;;3.90;1.00;;;;;;;;;;511263;28;1205;-60
2022/11/21 00:05:10;;;;;;;3.63;0.90;;;;;;;;;;508856;28;1278;-61
2022/11/21 00:05:27;;;;;;;3.00;0.90;;;;;;;;;;508836;28;1560;-60
2022/11/21 00:05:45;;;;;;;3.20;0.90;;;;;;;;;;508692;28;1258;-61
2022/11/21 00:06:02;;;;;;;4.93;0.90;;;;;;;;;;510102;28;1424;-60
2022/11/21 00:06:17;;;;;;;4.75;1.00;;;;;;;;;;510121;28;1092;-60
2022/11/21 00:06:33;;;;;;;3.95;0.93;;;;;;;;;;509468;28;1368;-60
2022/11/21 00:06:51;;;;;;;4.90;1.00;;;;;;;;;;509443;28;1268;-61
2022/11/21 00:07:06;;;;;;;5.43;1.00;;;;;;;;;;511197;28;1151;-61
2022/11/21 00:07:21;;;;;;;4.67;0.87;;;;;;;;;;511414;28;1330;-60
2022/11/21 00:07:37;;;;;;;4.37;1.10;;;;;;;;;;512302;28;1375;-60
2022/11/21 00:07:53;;;;;;;3.75;1.08;;;;;;;;;;510749;28;1256;-58
2022/11/21 00:08:10;;;;;;;2.97;0.80;;;;;;;;;;512963;28;1315;-60
2022/11/21 00:08:25;;;;;;;4.00;1.00;;;;;;;;;;511628;28;1574;-60
2022/11/21 00:08:41;;;;;;;3.63;1.00;;;;;;;;;;512291;28;1327;-60
2022/11/21 00:08:56;;;;;;;3.58;0.95;;;;;;;;;;511395;28;1159;-60
2022/11/21 00:09:11;;;;;;;3.97;0.90;;;;;;;;;;512912;28;1128;-61
2022/11/21 00:09:27;;;;;;;4.03;0.93;;;;;;;;;;510135;28;1373;-61
2022/11/21 00:09:42;;;;;;;4.25;1.00;;;;;;;;;;512511;28;1390;-61
2022/11/21 00:09:57;;;;;;;4.00;0.90;;;;;;;;;;512801;28;1429;-61
2022/11/21 00:10:12;;;;;;;3.33;0.70;;;;;;;;;;511952;28;1821;-60
2022/11/21 00:10:28;;;;;;;2.90;0.73;;;;;;;;;;512428;28;1163;-61
2022/11/21 00:10:44;;;;;;;2.97;0.83;;;;;;;;;;514120;28;1409;-60
2022/11/21 00:10:59;;;;;;;3.92;1.00;;;;;;;;;;512791;28;1425;-60
2022/11/21 00:11:15;;;;;;;4.07;1.10;;;;;;;;;;512319;28;1406;-60
2022/11/21 00:11:30;;;;;;;4.03;0.93;;;;;;;;;;511784;28;1402;-61
2022/11/21 00:11:45;;;;;;;3.60;0.80;;;;;;;;;;511572;28;1771;-61
2022/11/21 00:12:01;;;;;;;4.10;0.90;;;;;;;;;;512705;28;1347;-60
2022/11/21 00:12:16;;;;;;;4.97;1.00;;;;;;;;;;512700;28;1406;-60
2022/11/21 00:12:31;;;;;;;4.30;1.20;;;;;;;;;;509638;28;1330;-61
2022/11/21 00:12:47;;;;;;;4.80;1.20;;;;;;;;;;508898;28;1244;-61
2022/11/21 00:13:02;;;;;;;4.97;1.13;;;;;;;;;;509009;28;1206;-61
2022/11/21 00:13:19;;;;;;;4.10;1.10;;;;;;;;;;509842;28;1736;-61
2022/11/21 00:13:34;;;;;;;4.03;1.02;;;;;;;;;;507641;29;1436;-61
2022/11/21 00:13:50;;;;;;;5.03;1.07;;;;;;;;;;507643;28;1235;-59
2022/11/21 00:14:05;;;;;;;6.13;1.10;;;;;;;;;;506774;29;1241;-59
2022/11/21 00:14:20;;;;;;;5.00;1.07;;;;;;;;;;507992;28;1381;-59
2022/11/21 00:14:36;;;;;;;3.73;1.00;;;;;;;;;;508818;28;1173;-60
2022/11/21 00:14:51;;;;;;;5.30;1.10;;;;;;;;;;512062;28;1788;-60
2022/11/21 00:15:07;;;;;;;4.93;1.10;;;;;;;;;;513044;28;1171;-61
2022/11/21 00:15:24;;;;;;;3.38;0.98;;;;;;;;;;512253;28;1069;-59
2022/11/21 00:15:39;;;;;;;2.90;0.90;;;;;;;;;;514227;28;1385;-59
2022/11/21 00:15:55;;;;;;;3.97;1.00;;;;;;;;;;514273;28;1370;-58
2022/11/21 00:16:13;;;;;;;5.00;1.10;;;;;;;;;;511650;28;1164;-58
2022/11/21 00:16:28;;;;;;;4.18;1.00;;;;;;;;;;510840;28;1779;-58
2022/11/21 00:16:44;;;;;;;4.03;0.90;;;;;;;;;;510507;28;1438;-59
2022/11/21 00:16:59;;;;;;;4.30;1.02;;;;;;;;;;511329;28;1474;-58
2022/11/21 00:17:15;;;;;;;3.83;1.00;;;;;;;;;;506890;28;1375;-59
2022/11/21 00:17:31;;;;;;;4.90;1.02;;;;;;;;;;508398;28;1273;-59
2022/11/21 00:17:46;;;;;;;5.53;1.07;;;;;;;;;;508727;28;1364;-59
2022/11/21 00:18:02;;;;;;;4.32;0.95;;;;;;;;;;506726;28;1925;-58
2022/11/21 00:18:18;;;;;;;5.33;1.13;;;;;;;;;;507710;28;1932;-59
2022/11/21 00:18:34;;;;;;;4.53;1.10;;;;;;;;;;507353;28;1178;-60
2022/11/21 00:18:49;;;;;;;3.80;1.00;;;;;;;;;;508943;28;1401;-59
2022/11/21 00:19:04;;;;;;;3.97;1.00;;;;;;;;;;509013;28;1415;-60
2022/11/21 00:19:20;;;;;;;4.97;1.00;;;;;;;;;;510246;28;1187;-60
2022/11/21 00:19:35;;;;;;;6.20;1.10;;;;;;;;;;510042;28;1257;-60
2022/11/21 00:19:50;;;;;;;4.97;1.20;;;;;;;;;;507385;28;1731;-60
2022/11/21 00:20:06;;;;;;;5.13;1.13;;;;;;;;;;510286;28;1455;-60
2022/11/21 00:20:21;;;;;;;5.30;1.02;;;;;;;;;;511137;28;1392;-59
2022/11/21 00:20:38;;;;;;;4.37;1.10;;;;;;;;;;508389;28;1374;-60
2022/11/21 00:20:53;;;;;;;3.45;0.90;;;;;;;;;;511996;28;1148;-59
2022/11/21 00:21:14;;;;;;;3.63;0.90;;;;;;;;;;511437;28;1151;-59
2022/11/21 00:21:29;;;;;;;4.30;1.10;;;;;;;;;;511910;28;1268;-59
2022/11/21 00:21:45;;;;;;;5.60;1.20;;;;;;;;;;513860;28;1081;-60
2022/11/21 00:22:00;;;;;;;6.10;1.10;;;;;;;;;;514184;28;1297;-60
2022/11/21 00:22:15;;;;;;;4.73;1.00;;;;;;;;;;514669;28;1307;-60
2022/11/21 00:22:31;;;;;;;4.07;1.10;;;;;;;;;;512285;28;1213;-59
2022/11/21 00:22:47;;;;;;;5.22;1.10;;;;;;;;;;514252;28;1190;-59
2022/11/21 00:23:02;;;;;;;4.90;1.02;;;;;;;;;;513533;28;1991;-60
2022/11/21 00:23:18;;;;;;;4.32;1.10;;;;;;;;;;514471;28;1501;-59
2022/11/21 00:23:33;;;;;;;4.40;1.10;;;;;;;;;;513886;28;1473;-60
2022/11/21 00:23:48;;;;;;;4.40;1.10;;;;;;;;;;513830;28;1559;-60
2022/11/21 00:24:04;;;;;;;5.70;1.30;;;;;;;;;;512060;28;1296;-60
2022/11/21 00:24:19;;;;;;;5.30;1.20;;;;;;;;;;511891;28;1310;-60
2022/11/21 00:24:35;;;;;;;5.97;1.13;;;;;;;;;;512378;28;1746;-59
2022/11/21 00:24:50;;;;;;;5.45;1.23;;;;;;;;;;510354;28;1518;-59
2022/11/21 00:25:06;;;;;;;4.70;1.20;;;;;;;;;;511932;28;1518;-60
2022/11/21 00:25:21;;;;;;;5.45;1.10;;;;;;;;;;511201;28;1414;-59
2022/11/21 00:25:37;;;;;;;4.50;1.00;;;;;;;;;;510938;28;1226;-60
2022/11/21 00:25:52;;;;;;;3.63;1.00;;;;;;;;;;510873;28;1145;-60
2022/11/21 00:26:09;;;;;;;4.40;1.10;;;;;;;;;;512968;28;1670;-59
2022/11/21 00:26:25;;;;;;;4.78;1.25;;;;;;;;;;512678;28;1603;-60
2022/11/21 00:26:40;;;;;;;5.03;1.20;;;;;;;;;;513657;28;1724;-59
2022/11/21 00:26:55;;;;;;;5.00;1.07;;;;;;;;;;512774;28;1119;-60
2022/11/21 00:27:10;;;;;;;4.78;1.10;;;;;;;;;;515122;28;1504;-59
2022/11/21 00:27:26;;;;;;;4.80;1.00;;;;;;;;;;514203;28;1401;-59
2022/11/21 00:27:41;;;;;;;5.13;1.13;;;;;;;;;;514634;28;1772;-59
2022/11/21 00:27:56;;;;;;;4.32;1.20;;;;;;;;;;512598;28;1481;-59
2022/11/21 00:28:12;;;;;;;4.03;1.03;;;;;;;;;;508141;28;1221;-60
2022/11/21 00:28:27;;;;;;;5.20;1.00;;;;;;;;;;510405;28;1284;-60
2022/11/21 00:28:43;;;;;;;5.73;1.20;;;;;;;;;;508514;28;1522;-61
2022/11/21 00:28:58;;;;;;;5.28;1.20;;;;;;;;;;508408;28;1286;-60
2022/11/21 00:29:13;;;;;;;5.47;1.20;;;;;;;;;;508338;28;1657;-60
2022/11/21 00:29:28;;;;;;;4.67;1.30;;;;;;;;;;506413;28;1266;-60
2022/11/21 00:29:44;;;;;;;5.23;1.20;;;;;;;;;;508469;28;1895;-59
2022/11/21 00:29:59;;;;;;;5.30;1.10;;;;;;;;;;511001;28;1578;-60
2022/11/21 00:30:14;;;;;;;5.00;1.20;;;;;;;;;;512422;28;1300;-60
2022/11/21 00:30:30;;;;;;;5.80;1.20;;;;;;;;;;510304;28;1309;-60
2022/11/21 00:30:45;;;;;;;4.77;1.10;;;;;;;;;;507581;28;1321;-60
2022/11/21 00:31:01;;;;;;;4.72;1.20;;;;;;;;;;510252;28;2081;-61
2022/11/21 00:31:19;;;;;;;5.07;1.30;;;;;;;;;;508266;28;1317;-60
2022/11/21 00:31:34;;;;;;;4.63;1.20;;;;;;;;;;507682;28;1293;-60
2022/11/21 00:31:49;;;;;;;4.10;1.10;;;;;;;;;;506068;28;1343;-59
2022/11/21 00:32:05;;;;;;;3.87;1.10;;;;;;;;;;507165;29;1424;-60
2022/11/21 00:32:20;;;;;;;3.65;1.17;;;;;;;;;;507353;28;1349;-60
2022/11/21 00:32:35;;;;;;;3.37;1.17;;;;;;;;;;509421;28;1906;-61
2022/11/21 00:32:51;;;;;;;5.47;1.23;;;;;;;;;;508712;28;1209;-60
2022/11/21 00:33:06;;;;;;;6.13;1.30;;;;;;;;;;509820;28;1330;-60
2022/11/21 00:33:22;;;;;;;5.00;1.20;;;;;;;;;;512770;28;1280;-61
2022/11/21 00:33:37;;;;;;;4.82;1.20;;;;;;;;;;512876;28;1310;-61
2022/11/21 00:33:53;;;;;;;5.87;1.30;;;;;;;;;;514249;28;1207;-61
2022/11/21 00:34:08;;;;;;;6.40;1.30;;;;;;;;;;514542;28;1563;-61
2022/11/21 00:34:23;;;;;;;6.20;1.30;;;;;;;;;;514326;28;1230;-61
2022/11/21 00:34:39;;;;;;;6.53;1.37;;;;;;;;;;515225;28;1212;-61
2022/11/21 00:34:54;;;;;;;6.55;1.27;;;;;;;;;;512975;28;1418;-61
2022/11/21 00:35:09;;;;;;;6.67;1.23;;;;;;;;;;511075;28;1131;-61
2022/11/21 00:35:25;;;;;;;4.87;1.17;;;;;;;;;;512351;28;1433;-61
2022/11/21 00:35:40;;;;;;;3.78;1.17;;;;;;;;;;511521;28;2775;-61
2022/11/21 00:35:56;;;;;;;4.30;1.20;;;;;;;;;;512532;28;1474;-61
2022/11/21 00:36:11;;;;;;;5.03;1.23;;;;;;;;;;511583;28;1378;-60
2022/11/21 00:36:26;;;;;;;4.70;1.30;;;;;;;;;;512125;28;1140;-61
2022/11/21 00:36:42;;;;;;;4.37;1.30;;;;;;;;;;510863;28;1491;-60
2022/11/21 00:36:57;;;;;;;4.68;1.15;;;;;;;;;;513266;28;1124;-60
2022/11/21 00:37:12;;;;;;;4.73;1.03;;;;;;;;;;512655;28;1599;-61
2022/11/21 00:37:27;;;;;;;5.40;1.27;;;;;;;;;;511555;28;1367;-61
2022/11/21 00:37:43;;;;;;;5.63;1.40;;;;;;;;;;512645;28;1580;-61
2022/11/21 00:37:58;;;;;;;6.13;1.40;;;;;;;;;;513034;28;1307;-61
2022/11/21 00:38:14;;;;;;;6.83;1.40;;;;;;;;;;510248;28;1194;-61
2022/11/21 00:38:29;;;;;;;5.90;1.30;;;;;;;;;;509527;28;1951;-61
2022/11/21 00:38:45;;;;;;;4.53;1.30;;;;;;;;;;509277;28;1220;-61
2022/11/21 00:39:00;;;;;;;5.35;1.38;;;;;;;;;;510485;28;2115;-61
2022/11/21 00:39:15;;;;;;;7.03;1.30;;;;;;;;;;512334;28;1374;-61
2022/11/21 00:39:30;;;;;;;5.90;1.17;;;;;;;;;;511977;28;1317;-61
2022/11/21 00:39:46;;;;;;;4.63;1.30;;;;;;;;;;512089;28;1276;-61
2022/11/21 00:40:01;;;;;;;5.23;1.23;;;;;;;;;;511034;28;1105;-61
2022/11/21 00:40:17;;;;;;;5.65;1.23;;;;;;;;;;511311;28;1478;-60
2022/11/21 00:40:32;;;;;;;5.50;1.40;;;;;;;;;;510845;28;1546;-61
2022/11/21 00:40:47;;;;;;;5.00;1.33;;;;;;;;;;509621;28;1213;-61
2022/11/21 00:41:03;;;;;;;4.85;1.20;;;;;;;;;;509404;28;1122;-61
2022/11/21 00:41:18;;;;;;;5.22;1.20;;;;;;;;;;510078;28;1367;-60
2022/11/21 00:41:34;;;;;;;5.27;1.20;;;;;;;;;;511669;28;1435;-61
2022/11/21 00:41:49;;;;;;;5.27;1.20;;;;;;;;;;511530;28;1355;-60
2022/11/21 00:42:04;;;;;;;5.53;1.20;;;;;;;;;;510974;28;1742;-61
2022/11/21 00:42:19;;;;;;;5.90;1.23;;;;;;;;;;506735;28;1309;-61
2022/11/21 00:42:35;;;;;;;5.53;1.33;;;;;;;;;;509484;28;2466;-61
2022/11/21 00:42:50;;;;;;;4.23;1.20;;;;;;;;;;509119;28;1688;-60
2022/11/21 00:43:05;;;;;;;4.07;1.20;;;;;;;;;;512241;28;1438;-61
2022/11/21 00:43:21;;;;;;;4.93;1.40;;;;;;;;;;510085;28;1544;-61
2022/11/21 00:43:36;;;;;;;4.80;1.40;;;;;;;;;;508640;28;1172;-61
2022/11/21 00:43:51;;;;;;;4.55;1.13;;;;;;;;;;513151;28;2194;-60
2022/11/21 00:44:07;;;;;;;5.40;1.07;;;;;;;;;;512292;28;1394;-60
2022/11/21 00:44:22;;;;;;;5.70;1.20;;;;;;;;;;513802;28;1522;-60
2022/11/21 00:44:37;;;;;;;5.15;1.27;;;;;;;;;;513374;28;1402;-60
2022/11/21 00:44:52;;;;;;;4.43;1.20;;;;;;;;;;508180;28;1482;-60
2022/11/21 00:45:08;;;;;;;4.13;1.10;;;;;;;;;;510550;28;1434;-60
2022/11/21 00:45:23;;;;;;;5.07;1.23;;;;;;;;;;508242;28;1693;-60
2022/11/21 00:45:39;;;;;;;5.27;1.30;;;;;;;;;;507334;29;1393;-60
2022/11/21 00:45:54;;;;;;;5.00;1.20;;;;;;;;;;504518;29;1274;-60
2022/11/21 00:46:09;;;;;;;4.53;1.17;;;;;;;;;;502072;29;1092;-60
2022/11/21 00:46:25;;;;;;;4.83;1.20;;;;;;;;;;504857;29;1465;-60
2022/11/21 00:46:40;;;;;;;5.60;1.30;;;;;;;;;;504758;29;1414;-60
2022/11/21 00:46:55;;;;;;;6.13;1.48;;;;;;;;;;506991;29;1785;-60
2022/11/21 00:47:11;;;;;;;6.97;1.57;;;;;;;;;;508555;28;1204;-60
2022/11/21 00:47:26;;;;;;;6.57;1.30;;;;;;;;;;507762;28;1240;-60
2022/11/21 00:47:41;;;;;;;6.57;1.30;;;;;;;;;;509866;28;1578;-60
2022/11/21 00:47:56;;;;;;;6.70;1.47;;;;;;;;;;511905;28;1379;-60
2022/11/21 00:48:12;;;;;;;6.10;1.30;;;;;;;;;;512565;28;1431;-60
2022/11/21 00:48:28;;;;;;;5.45;1.10;;;;;;;;;;511759;28;1127;-60
2022/11/21 00:48:44;;;;;;;5.10;1.08;;;;;;;;;;511438;28;1497;-60
2022/11/21 00:48:59;;;;;;;6.40;1.40;;;;;;;;;;509584;28;1368;-61
2022/11/21 00:49:14;;;;;;;6.67;1.47;;;;;;;;;;507797;28;1270;-60
2022/11/21 00:49:29;;;;;;;5.97;1.20;;;;;;;;;;509541;28;1427;-60
2022/11/21 00:49:45;;;;;;;5.20;1.20;;;;;;;;;;508839;28;1284;-60
2022/11/21 00:50:00;;;;;;;5.07;1.20;;;;;;;;;;509392;28;1551;-60
2022/11/21 00:50:15;;;;;;;6.00;1.20;;;;;;;;;;509549;28;1700;-60
2022/11/21 00:50:31;;;;;;;5.97;1.30;;;;;;;;;;511232;28;1412;-60
2022/11/21 00:50:49;;;;;;;5.22;1.25;;;;;;;;;;508753;28;1455;-60
2022/11/21 00:51:04;;;;;;;4.85;1.20;;;;;;;;;;508173;28;1265;-60
2022/11/21 00:51:19;;;;;;;6.00;1.37;;;;;;;;;;509449;28;1527;-60
2022/11/21 00:51:35;;;;;;;6.03;1.30;;;;;;;;;;508957;28;1347;-60
2022/11/21 00:51:50;;;;;;;5.35;1.20;;;;;;;;;;507813;28;1657;-60
2022/11/21 00:52:05;;;;;;;5.57;1.20;;;;;;;;;;508553;28;1321;-60
2022/11/21 00:52:20;;;;;;;5.90;1.23;;;;;;;;;;506343;29;1182;-60
2022/11/21 00:52:36;;;;;;;5.18;1.23;;;;;;;;;;508006;28;1443;-60
2022/11/21 00:52:57;;;;;;;4.90;1.03;;;;;;;;;;509059;28;1388;-60
2022/11/21 00:53:12;;;;;;;5.40;1.20;;;;;;;;;;507144;28;1393;-60
2022/11/21 00:53:28;;;;;;;4.95;1.20;;;;;;;;;;508254;28;1848;-60
2022/11/21 00:53:44;;;;;;;5.80;1.35;;;;;;;;;;508127;28;1530;-60
2022/11/21 00:53:59;;;;;;;5.50;1.23;;;;;;;;;;507588;28;1168;-60
2022/11/21 00:54:14;;;;;;;5.23;1.20;;;;;;;;;;508250;28;1434;-60
2022/11/21 00:54:29;;;;;;;4.77;1.20;;;;;;;;;;508817;28;1109;-60
2022/11/21 00:54:45;;;;;;;4.75;1.20;;;;;;;;;;512490;28;1614;-60
2022/11/21 00:55:00;;;;;;;5.77;1.20;;;;;;;;;;511608;28;1718;-61
2022/11/21 00:55:15;;;;;;;6.13;1.27;;;;;;;;;;512473;28;1442;-60
2022/11/21 00:55:31;;;;;;;5.15;1.20;;;;;;;;;;512862;28;1708;-60
2022/11/21 00:55:46;;;;;;;5.30;1.10;;;;;;;;;;510127;28;1320;-60
2022/11/21 00:56:01;;;;;;;6.23;1.30;;;;;;;;;;509994;28;1330;-60
2022/11/21 00:56:16;;;;;;;6.27;1.20;;;;;;;;;;509728;28;1221;-60
2022/11/21 00:56:32;;;;;;;6.00;1.20;;;;;;;;;;509658;28;1732;-61
2022/11/21 00:56:47;;;;;;;5.30;1.40;;;;;;;;;;511030;28;1588;-60
2022/11/21 00:57:02;;;;;;;4.97;1.30;;;;;;;;;;509592;28;1225;-60
2022/11/21 00:57:17;;;;;;;5.78;1.30;;;;;;;;;;509812;28;1188;-60
2022/11/21 00:57:33;;;;;;;4.97;1.30;;;;;;;;;;508098;28;1144;-60
2022/11/21 00:57:48;;;;;;;5.07;1.20;;;;;;;;;;509065;28;1466;-61
2022/11/21 00:58:03;;;;;;;5.88;1.40;;;;;;;;;;508557;29;1243;-60
2022/11/21 00:58:19;;;;;;;6.83;1.43;;;;;;;;;;507377;29;1848;-60
2022/11/21 00:58:34;;;;;;;7.13;1.30;;;;;;;;;;508294;29;1942;-60
2022/11/21 00:58:49;;;;;;;5.78;1.30;;;;;;;;;;506977;28;1206;-61
2022/11/21 00:59:04;;;;;;;6.77;1.40;;;;;;;;;;510960;28;1446;-61
2022/11/21 00:59:20;;;;;;;7.10;1.40;;;;;;;;;;510060;28;1375;-61
2022/11/21 00:59:35;;;;;;;5.83;1.40;;;;;;;;;;510705;28;1227;-61
2022/11/21 00:59:50;;;;;;;6.30;1.60;;;;;;;;;;511371;28;1734;-61
2022/11/21 01:00:06;;;;;;;6.50;1.50;;;;;;;;;;510945;28;1228;-61
2022/11/21 01:00:21;;;;;;;5.68;1.30;;;;;;;;;;512969;28;1363;-61
2022/11/21 01:00:37;;;;;;;5.87;1.30;;;;;;;;;;513594;28;1407;-61
2022/11/21 01:01:01;;;;;;;6.37;1.30;;;;;;;;;;514567;28;1188;-61
2022/11/21 01:01:17;;;;;;;5.18;1.38;;;;;;;;;;515481;28;1200;-60
2022/11/21 01:01:32;;;;;;;5.43;1.40;;;;;;;;;;513604;28;1159;-61
2022/11/21 01:01:47;;;;;;;6.07;1.33;;;;;;;;;;513793;28;1212;-61
2022/11/21 01:02:04;;;;;;;6.07;1.37;;;;;;;;;;513933;28;1456;-61
2022/11/21 01:02:19;;;;;;;5.15;1.30;;;;;;;;;;514373;28;1577;-61
2022/11/21 01:02:34;;;;;;;5.63;1.30;;;;;;;;;;514074;28;1236;-61
2022/11/21 01:02:50;;;;;;;6.83;1.40;;;;;;;;;;512811;28;1161;-61
2022/11/21 01:03:05;;;;;;;7.50;1.63;;;;;;;;;;515102;28;1641;-61
2022/11/21 01:03:20;;;;;;;7.33;1.60;;;;;;;;;;513050;28;1260;-61
2022/11/21 01:03:36;;;;;;;7.07;1.37;;;;;;;;;;512968;28;1450;-61
2022/11/21 01:03:51;;;;;;;7.43;1.40;;;;;;;;;;513586;28;1623;-61
2022/11/21 01:04:06;;;;;;;6.07;1.30;;;;;;;;;;509652;28;1110;-61
2022/11/21 01:04:21;;;;;;;6.83;1.40;;;;;;;;;;511139;28;1268;-61
2022/11/21 01:04:37;;;;;;;7.50;1.47;;;;;;;;;;510337;28;1711;-61
2022/11/21 01:04:52;;;;;;;7.47;1.50;;;;;;;;;;511892;28;1379;-61
2022/11/21 01:05:08;;;;;;;6.30;1.50;;;;;;;;;;509857;28;1533;-61
2022/11/21 01:05:23;;;;;;;4.82;1.30;;;;;;;;;;510703;28;1119;-61
2022/11/21 01:05:38;;;;;;;4.93;1.33;;;;;;;;;;510445;28;1379;-61
2022/11/21 01:05:59;;;;;;;5.37;1.40;;;;;;;;;;511053;28;1316;-61
2022/11/21 01:06:15;;;;;;;5.45;1.52;;;;;;;;;;511636;28;1588;-61
2022/11/21 01:06:30;;;;;;;6.57;1.48;;;;;;;;;;512463;28;1583;-61
2022/11/21 01:06:45;;;;;;;6.57;1.30;;;;;;;;;;513235;28;1363;-61
2022/11/21 01:07:00;;;;;;;4.47;1.33;;;;;;;;;;513079;28;1129;-61
2022/11/21 01:07:16;;;;;;;5.18;1.33;;;;;;;;;;511765;28;1205;-61
2022/11/21 01:07:31;;;;;;;6.70;1.43;;;;;;;;;;510952;28;1194;-61
2022/11/21 01:07:48;;;;;;;7.43;1.50;;;;;;;;;;511289;28;1759;-61
2022/11/21 01:08:03;;;;;;;7.97;1.50;;;;;;;;;;511328;28;1275;-61
2022/11/21 01:08:18;;;;;;;6.87;1.50;;;;;;;;;;508453;28;1423;-61
2022/11/21 01:08:35;;;;;;;6.53;1.50;;;;;;;;;;509172;28;1458;-61
2022/11/21 01:08:50;;;;;;;8.30;1.50;;;;;;;;;;507842;28;1471;-61
2022/11/21 01:09:06;;;;;;;7.55;1.40;;;;;;;;;;509051;29;1094;-61
2022/11/21 01:09:21;;;;;;;6.13;1.20;;;;;;;;;;507897;28;1243;-61
2022/11/21 01:09:36;;;;;;;6.57;1.30;;;;;;;;;;509641;28;1196;-61
2022/11/21 01:09:52;;;;;;;5.47;1.27;;;;;;;;;;511010;28;1210;-61
2022/11/21 01:10:07;;;;;;;4.73;1.30;;;;;;;;;;511927;28;1202;-61
2022/11/21 01:10:22;;;;;;;5.77;1.37;;;;;;;;;;513158;28;1159;-61
2022/11/21 01:10:37;;;;;;;6.55;1.38;;;;;;;;;;512465;28;1238;-61
2022/11/21 01:10:53;;;;;;;7.10;1.40;;;;;;;;;;513394;28;1147;-61
2022/11/21 01:11:16;;;;;;;6.30;1.40;;;;;;;;;;512986;28;1298;-61
2022/11/21 01:11:32;;;;;;;5.63;1.60;;;;;;;;;;511210;28;1033;-61
2022/11/21 01:11:47;;;;;;;6.77;1.50;;;;;;;;;;508794;28;1370;-61
2022/11/21 01:12:03;;;;;;;7.80;1.60;;;;;;;;;;511534;28;1124;-61
2022/11/21 01:12:18;;;;;;;6.93;1.50;;;;;;;;;;507817;28;1430;-61
2022/11/21 01:12:33;;;;;;;6.70;1.40;;;;;;;;;;508685;29;1230;-61
2022/11/21 01:12:48;;;;;;;6.50;1.42;;;;;;;;;;510375;28;1140;-61
2022/11/21 01:13:04;;;;;;;7.33;1.50;;;;;;;;;;509934;28;1152;-61
2022/11/21 01:13:19;;;;;;;7.73;1.50;;;;;;;;;;511036;28;1090;-61
2022/11/21 01:13:35;;;;;;;7.83;1.63;;;;;;;;;;511704;28;1107;-61
2022/11/21 01:13:53;;;;;;;7.97;1.80;;;;;;;;;;513279;28;1095;-61
2022/11/21 01:14:08;;;;;;;8.45;1.85;;;;;;;;;;513477;28;1083;-61
2022/11/21 01:14:23;;;;;;;7.47;1.73;;;;;;;;;;513443;28;1309;-61
2022/11/21 01:14:39;;;;;;;7.33;1.77;;;;;;;;;;517733;28;1083;-61
2022/11/21 01:14:54;;;;;;;8.23;1.90;;;;;;;;;;515411;28;1060;-61
2022/11/21 01:15:09;;;;;;;8.05;1.80;;;;;;;;;;512957;28;1217;-61
2022/11/21 01:15:25;;;;;;;7.13;1.57;;;;;;;;;;511164;28;1431;-61
2022/11/21 01:15:40;;;;;;;6.40;1.50;;;;;;;;;;508557;28;1841;-61
2022/11/21 01:15:55;;;;;;;7.93;1.67;;;;;;;;;;511210;28;1073;-61
2022/11/21 01:16:13;;;;;;;9.37;1.77;;;;;;;;;;509198;28;1191;-61
2022/11/21 01:16:29;;;;;;;9.73;1.70;;;;;;;;;;507232;29;1722;-61
2022/11/21 01:16:44;;;;;;;8.37;1.80;;;;;;;;;;505627;29;1297;-61
2022/11/21 01:16:59;;;;;;;7.40;1.75;;;;;;;;;;507872;29;1348;-61
2022/11/21 01:17:15;;;;;;;6.67;1.50;;;;;;;;;;509649;28;1259;-61
2022/11/21 01:17:33;;;;;;;7.38;1.50;;;;;;;;;;511157;28;990;-61
2022/11/21 01:17:48;;;;;;;10.10;1.85;;;;;;;;;;508919;28;1073;-61
2022/11/21 01:18:04;;;;;;;8.90;1.90;;;;;;;;;;511084;28;1677;-61
2022/11/21 01:18:19;;;;;;;8.10;1.70;;;;;;;;;;511071;28;1148;-61
2022/11/21 01:18:35;;;;;;;9.88;1.83;;;;;;;;;;508915;28;1976;-61
2022/11/21 01:18:50;;;;;;;8.33;1.80;;;;;;;;;;509443;28;996;-60
2022/11/21 01:19:06;;;;;;;8.90;1.90;;;;;;;;;;511166;28;1100;-61
2022/11/21 01:19:21;;;;;;;9.43;2.05;;;;;;;;;;511896;28;1139;-61
2022/11/21 01:19:36;;;;;;;7.47;1.77;;;;;;;;;;512315;28;1080;-61
2022/11/21 01:19:51;;;;;;;8.67;1.70;;;;;;;;;;513246;28;1131;-61
2022/11/21 01:20:07;;;;;;;13.23;2.07;;;;;;;;;;512821;28;1159;-61
2022/11/21 01:20:23;;;;;;;11.18;1.98;;;;;;;;;;510960;28;1016;-61
2022/11/21 01:20:39;;;;;;;7.28;1.70;;;;;;;;;;512637;28;1091;-61
2022/11/21 01:20:58;;;;;;;8.02;1.50;;;;;;;;;;511982;28;1122;-61
2022/11/21 01:21:22;;;;;;;6.93;1.60;;;;;;;;;;512137;28;1299;-61
2022/11/21 01:21:37;;;;;;;8.02;1.58;;;;;;;;;;511929;28;1246;-61
2022/11/21 01:21:53;;;;;;;8.53;1.77;;;;;;;;;;512698;28;1123;-61
2022/11/21 01:22:08;;;;;;;7.10;1.85;;;;;;;;;;513328;28;1384;-61
2022/11/21 01:22:23;;;;;;;8.73;1.87;;;;;;;;;;513899;28;1128;-60
2022/11/21 01:22:38;;;;;;;8.80;1.83;;;;;;;;;;513309;28;1351;-61
2022/11/21 01:22:54;;;;;;;9.10;1.88;;;;;;;;;;510125;28;1308;-61
2022/11/21 01:23:09;;;;;;;9.67;1.90;;;;;;;;;;511594;28;1339;-61
2022/11/21 01:23:24;;;;;;;8.17;1.77;;;;;;;;;;511660;28;1191;-61
2022/11/21 01:23:40;;;;;;;8.37;1.80;;;;;;;;;;507755;28;1324;-61
2022/11/21 01:23:58;;;;;;;7.95;1.80;;;;;;;;;;510218;28;1374;-61
2022/11/21 01:24:13;;;;;;;7.65;1.70;;;;;;;;;;508764;28;1781;-61
2022/11/21 01:24:29;;;;;;;7.50;1.73;;;;;;;;;;510115;28;1242;-61
2022/11/21 01:24:45;;;;;;;8.30;1.90;;;;;;;;;;511140;28;1131;-61
2022/11/21 01:25:00;;;;;;;9.57;1.98;;;;;;;;;;510929;28;1191;-61
2022/11/21 01:25:16;;;;;;;9.02;1.80;;;;;;;;;;509234;28;1188;-61
2022/11/21 01:25:34;;;;;;;8.87;1.87;;;;;;;;;;513079;28;1060;-61
2022/11/21 01:25:50;;;;;;;8.45;1.83;;;;;;;;;;514394;28;1112;-61
2022/11/21 01:26:09;;;;;;;9.00;1.87;;;;;;;;;;515106;28;1186;-61
2022/11/21 01:26:26;;;;;;;9.95;2.00;;;;;;;;;;513830;28;1168;-61
2022/11/21 01:26:41;;;;;;;9.60;1.80;;;;;;;;;;514732;28;1404;-61
2022/11/21 01:26:57;;;;;;;10.83;1.87;;;;;;;;;;515047;28;1202;-61
2022/11/21 01:27:12;;;;;;;10.67;1.93;;;;;;;;;;511866;28;1415;-61
2022/11/21 01:27:27;;;;;;;10.00;1.93;;;;;;;;;;509030;28;1377;-60
2022/11/21 01:27:43;;;;;;;10.18;2.05;;;;;;;;;;511039;28;1408;-60
2022/11/21 01:27:58;;;;;;;8.70;1.90;;;;;;;;;;511281;28;1171;-60
2022/11/21 01:28:13;;;;;;;8.47;1.77;;;;;;;;;;511055;28;1297;-60
2022/11/21 01:28:29;;;;;;;9.00;1.85;;;;;;;;;;509187;28;1439;-61
2022/11/21 01:28:45;;;;;;;8.43;1.83;;;;;;;;;;510311;28;1043;-61
2022/11/21 01:29:00;;;;;;;8.23;1.83;;;;;;;;;;511775;28;1217;-61
2022/11/21 01:29:16;;;;;;;7.70;1.80;;;;;;;;;;511318;28;1214;-61
2022/11/21 01:29:31;;;;;;;7.78;1.80;;;;;;;;;;512513;28;1222;-61
2022/11/21 01:29:46;;;;;;;8.10;1.88;;;;;;;;;;509240;28;1023;-61
2022/11/21 01:30:07;;;;;;;9.07;2.05;;;;;;;;;;341287;28;10000522;-61
2022/11/21 01:30:22;;;;;;;8.02;1.70;;;;;;;;;;509845;28;1625;-60
2022/11/21 01:30:38;;;;;;;8.87;1.67;;;;;;;;;;509984;28;1169;-61
2022/11/21 01:30:53;;;;;;;9.37;1.80;;;;;;;;;;511109;28;1451;-61
2022/11/21 01:31:11;;;;;;;9.57;1.73;;;;;;;;;;510791;28;1418;-59
2022/11/21 01:31:28;;;;;;;10.13;1.73;;;;;;;;;;510218;28;1097;-59
2022/11/21 01:31:44;;;;;;;7.78;1.70;;;;;;;;;;511172;28;1899;-61
2022/11/21 01:31:59;;;;;;;8.00;1.75;;;;;;;;;;512642;28;1744;-61
2022/11/21 01:32:14;;;;;;;8.70;1.90;;;;;;;;;;513614;28;1445;-61
2022/11/21 01:32:30;;;;;;;8.40;1.90;;;;;;;;;;511497;28;1446;-61
2022/11/21 01:32:48;;;;;;;7.90;1.77;;;;;;;;;;511953;28;1529;-61
2022/11/21 01:33:03;;;;;;;8.65;1.85;;;;;;;;;;511027;28;1389;-61
2022/11/21 01:33:18;;;;;;;10.07;1.93;;;;;;;;;;512962;28;1493;-61
2022/11/21 01:33:34;;;;;;;8.67;1.87;;;;;;;;;;512111;28;1085;-61
2022/11/21 01:33:51;;;;;;;7.90;1.92;;;;;;;;;;514021;28;1158;-61
2022/11/21 01:34:06;;;;;;;8.63;1.90;;;;;;;;;;515009;28;1531;-61
2022/11/21 01:34:21;;;;;;;9.00;1.80;;;;;;;;;;514815;28;1225;-61
2022/11/21 01:34:37;;;;;;;8.93;2.10;;;;;;;;;;513522;28;1205;-61
2022/11/21 01:34:52;;;;;;;9.90;2.15;;;;;;;;;;510274;28;1734;-61
2022/11/21 01:35:07;;;;;;;10.87;1.97;;;;;;;;;;509770;28;1424;-61
2022/11/21 01:35:24;;;;;;;12.50;2.00;;;;;;;;;;510894;28;1371;-61
2022/11/21 01:35:39;;;;;;;11.32;2.05;;;;;;;;;;510142;28;1139;-61
2022/11/21 01:35:55;;;;;;;10.40;1.90;;;;;;;;;;510725;28;1403;-61
2022/11/21 01:36:14;;;;;;;11.98;2.10;;;;;;;;;;509671;28;1408;-62
2022/11/21 01:36:33;;;;;;;10.35;2.28;;;;;;;;;;509464;28;1816;-61
2022/11/21 01:36:48;;;;;;;9.65;1.95;;;;;;;;;;513247;28;1227;-61
2022/11/21 01:37:04;;;;;;;9.87;1.93;;;;;;;;;;515038;28;1389;-61
2022/11/21 01:37:19;;;;;;;12.10;2.00;;;;;;;;;;512348;28;1315;-61
2022/11/21 01:37:35;;;;;;;10.80;1.90;;;;;;;;;;510893;28;1126;-61